Aérodrome :
LOGIN :

S'inscrire | Disclaimer

   EN    FR    IT 

 










Légende :    VFR   VFR Marginal   IFR   IFR Intensif   IFR Très Intensif
Visi : 
Plafond : 
>= 8 km
>= 3000ft
5 à 8 km
1000 à 3000 ft
1500m à 5 km
500 à 1000 ft
800 à 1500m
200 à 500 ft
< 800m
< 200 ft
Symboles :   Orages  Brouillard  Fortes neiges  Fortes précipitations  Vent > 20 kt
SIGMETs :   Divers  Orages  Givrage  Turbulence  Onde Orograph.  Cendres Volcan.






- Altitude de l'aérodrome : 3 ft
- Code IATA : DHR


EHKD - Den Helder De Kooy

DERNIER METAR :
  • 270855Z AUTO 27003KT 230V300 9999 FEW004 BKN005 06/05 Q1041 YLO BECMG SCT008

METARs EXPIRÉS :
  • 270837Z AUTO 27003KT 9999 FEW004 BKN006 05/05 Q1041 YLO BECMG SCT008
  • 270825Z AUTO 27004KT 240V310 8000 BR FEW004 SCT005 OVC007 05/05 Q1040 YLO TEMPO FEW003 SCT004 BKN006
  • 270817Z AUTO 26004KT 220V300 7000 BR FEW003 BKN007 05/05 Q1040 GRN TEMPO 2500 BR FEW001 SCT002 BKN004
  • 270808Z AUTO 26004KT 230V290 6000 BR FEW004 BKN006 BKN007 05/05 Q1040 YLO TEMPO 2500 BR FEW001 SCT002 BKN004
  • 270755Z AUTO 26005KT 6000 BR FEW002 BKN005 OVC006 05/04 Q1040 YLO TEMPO 2500 BR FEW001 SCT002 BKN004
  • 270747Z AUTO 25003KT 210V280 4200 BR FEW005 OVC006 05/04 Q1040 YLO TEMPO 2500 BR FEW001 SCT002 BKN004
  • 270725Z AUTO 24003KT 200V290 3500 BR BKN005 OVC006 05/04 Q1040 YLO TEMPO 2500 BR SCT002 BKN004
  • 270705Z AUTO 21003KT 2700 BR BKN004 OVC005 04/04 Q1040 YLO TEMPO 2500 BR FEW001 BKN002
  • 270655Z AUTO 19003KT 170V240 6000 BR BKN004 OVC005 05/04 Q1040 YLO TEMPO 2500 BR FEW001 BKN002
  • 270645Z AUTO VRB02KT 7000 BR SCT003 BKN004 OVC005 05/04 Q1039 YLO TEMPO 2500 BR FEW001 BKN002
  • 270632Z AUTO VRB02KT 5000 BR FEW002 BKN004 OVC005 05/04 Q1039 YLO TEMPO 2500 BR FEW001 BKN002
  • 270625Z AUTO VRB01KT 5000 BR SCT002 OVC004 05/04 Q1039 AMB TEMPO 2500 BR FEW001 BKN002
  • 270617Z AUTO VRB01KT 9999 BKN003 OVC004 05/05 Q1039 YLO TEMPO 2500 BR FEW001 BKN002
  • 270609Z AUTO 26001KT 5000 BR SCT003 OVC004 05/05 Q1039 YLO TEMPO FEW001 BKN002

TAF TAF EHKD
Valide du 27 à 06h jusqu'au 27 à 18h UTC


270524Z 2706/2718 VRB02KT 3000 BR FEW002 OVC004
PROB30
TEMPO 2706/2708 1500 SCT001 OVC002
BECMG 2708/2710 5000 NSW SCT005 BKN007
BECMG 2710/2712 28005KT NSC



MET'MAP, la Météo Aéronautique d'un coup d'oeil ! - Copyright ORBIFLY Décembre 2007 - Disclaimer

ORBIFLY MET'MAP TEAM :

Programmation & Développement : Alexandra Zaïnal
Sur une idée originale de : Baudouin d'Aumeries
Assistance à la programmation : Marc-Olivier Méhu
Soutien technique & logistique : Manuel Goepfert

Contact : metmap@orbifly.com




SOURCES & CREDITS :

   NOAA